Time,TemperatureF,DewpointF,PressureIn,WindDirection,WindDirectionDegrees,WindSpeedMPH,WindSpeedGustMPH,Humidity,HourlyPrecipIn,Conditions,Clouds,dailyrainin,SoftwareType,DateUTC
2013-03-27 00:28:00,31.5,24.5,30.29,SE,132,0.0,0.0,75,0.00,,---,0.00,VWS V14.01,2013-03-27 05:28:00,
2013-03-27 00:58:00,30.7,24.4,30.30,SE,133,0.0,0.0,77,0.00,,---,0.00,VWS V14.01,2013-03-27 05:58:00,
2013-03-27 01:28:00,30.3,24.6,30.30,SE,142,0.0,0.0,79,0.00,,---,0.00,VWS V14.01,2013-03-27 06:28:00,
2013-03-27 01:58:00,29.7,24.3,30.30,SE,142,0.0,0.0,80,0.00,,---,0.00,VWS V14.01,2013-03-27 06:58:00,
2013-03-27 02:28:00,29.1,24.0,30.29,SE,142,0.0,0.0,81,0.00,,---,0.00,VWS V14.01,2013-03-27 07:28:00,
2013-03-27 02:58:00,28.4,23.3,30.28,SE,142,0.0,0.0,81,0.00,,---,0.00,VWS V14.01,2013-03-27 07:58:00,
2013-03-27 03:28:00,28.0,23.2,30.28,SE,142,0.0,0.0,82,0.00,,---,0.00,VWS V14.01,2013-03-27 08:28:00,
2013-03-27 03:58:00,26.6,22.1,30.26,SE,142,0.0,0.0,83,0.00,,---,0.00,VWS V14.01,2013-03-27 08:58:00,
2013-03-27 04:28:00,27.4,23.2,30.26,SE,142,0.0,0.0,84,0.00,,---,0.00,VWS V14.01,2013-03-27 09:28:00,
2013-03-27 04:58:00,27.1,22.6,30.26,SE,142,0.0,0.0,83,0.00,,---,0.00,VWS V14.01,2013-03-27 09:58:00,
2013-03-27 05:28:00,27.4,22.9,30.26,SE,132,0.0,0.0,83,0.00,,---,0.00,VWS V14.01,2013-03-27 10:28:00,
2013-03-27 05:58:00,27.2,22.4,30.26,SE,129,0.0,0.0,82,0.00,,---,0.00,VWS V14.01,2013-03-27 10:58:00,
2013-03-27 06:28:00,26.5,21.8,30.27,SE,128,0.0,0.0,82,0.00,,---,0.00,VWS V14.01,2013-03-27 11:28:00,
2013-03-27 06:58:00,26.2,22.0,30.27,SE,128,0.0,0.0,84,0.00,,---,0.00,VWS V14.01,2013-03-27 11:58:00,
2013-03-27 07:28:00,25.6,21.2,30.27,SE,128,0.0,0.0,83,0.00,,---,0.00,VWS V14.01,2013-03-27 12:28:00,
2013-03-27 07:58:00,26.9,23.0,30.28,SE,128,0.0,0.0,85,0.00,,---,0.00,VWS V14.01,2013-03-27 12:58:00,
2013-03-27 08:28:00,28.9,24.1,30.28,ESE,109,0.0,0.0,82,0.00,,---,0.00,VWS V14.01,2013-03-27 13:28:00,
2013-03-27 08:58:00,31.5,25.1,30.28,East,87,0.0,0.0,77,0.00,,---,0.00,VWS V14.01,2013-03-27 13:58:00,
2013-03-27 09:28:00,34.4,26.3,30.29,ESE,109,0.0,0.0,72,0.00,,---,0.00,VWS V14.01,2013-03-27 14:28:00,
2013-03-27 09:58:00,36.5,26.2,30.28,ESE,102,0.0,0.0,66,0.00,,---,0.00,VWS V14.01,2013-03-27 14:58:00,
2013-03-27 10:28:00,39.1,27.6,30.28,East,85,0.0,0.0,63,0.00,,---,0.00,VWS V14.01,2013-03-27 15:28:00,
2013-03-27 10:58:00,40.6,27.4,30.28,ENE,61,0.0,0.0,59,0.00,,---,0.00,VWS V14.01,2013-03-27 15:58:00,
2013-03-27 11:28:00,43.4,28.3,30.27,ESE,104,0.0,0.0,55,0.00,,---,0.00,VWS V14.01,2013-03-27 16:28:00,
2013-03-27 11:58:00,44.8,27.8,30.27,ESE,111,0.0,0.0,51,0.00,,---,0.00,VWS V14.01,2013-03-27 16:58:00,
2013-03-27 12:58:00,46.2,29.6,30.26,ESE,107,0.0,0.0,52,0.00,,---,0.00,VWS V14.01,2013-03-27 17:58:00,
2013-03-27 13:28:00,45.7,29.6,30.24,East,82,0.0,0.0,53,0.00,,---,0.00,VWS V14.01,2013-03-27 18:28:00,
2013-03-27 13:58:00,47.2,29.5,30.23,East,80,0.0,0.0,50,0.00,,---,0.00,VWS V14.01,2013-03-27 18:58:00,
2013-03-27 14:28:00,48.9,30.1,30.22,East,98,0.0,0.0,48,0.00,,---,0.00,VWS V14.01,2013-03-27 19:28:00,
2013-03-27 14:58:00,49.7,29.8,30.21,SE,140,0.0,0.0,46,0.00,,---,0.00,VWS V14.01,2013-03-27 19:58:00,
2013-03-27 15:28:00,51.2,31.1,30.20,East,98,0.0,0.0,46,0.00,,---,0.00,VWS V14.01,2013-03-27 20:28:00,
2013-03-27 15:58:00,52.0,30.2,30.19,ESE,108,0.0,0.0,43,0.00,,---,0.00,VWS V14.01,2013-03-27 20:58:00,
2013-03-27 16:28:00,52.4,31.1,30.18,SE,140,0.0,0.0,44,0.00,,---,0.00,VWS V14.01,2013-03-27 21:28:00,
2013-03-27 16:58:00,52.6,30.2,30.19,East,96,0.0,0.0,42,0.00,,---,0.00,VWS V14.01,2013-03-27 21:58:00,
2013-03-27 17:28:00,51.5,30.9,30.19,ESE,107,0.0,0.0,45,0.00,,---,0.00,VWS V14.01,2013-03-27 22:28:00,
2013-03-27 17:58:00,51.1,31.6,30.19,ESE,107,0.0,0.0,47,0.00,,---,0.00,VWS V14.01,2013-03-27 22:58:00,
2013-03-27 18:28:00,50.4,32.0,30.19,ESE,117,0.0,0.0,49,0.00,,---,0.00,VWS V14.01,2013-03-27 23:28:00,
2013-03-27 18:58:00,49.2,30.9,30.19,ESE,109,0.0,0.0,49,0.00,,---,0.00,VWS V14.01,2013-03-27 23:58:00,
2013-03-27 19:28:00,47.4,31.1,30.20,ESE,110,0.0,0.0,53,0.00,,---,0.00,VWS V14.01,2013-03-28 00:28:00,
2013-03-27 19:58:00,45.0,31.5,30.20,ESE,109,0.0,0.0,59,0.00,,---,0.00,VWS V14.01,2013-03-28 00:58:00,
2013-03-27 20:28:00,43.5,31.4,30.21,ESE,109,0.0,0.0,62,0.00,,---,0.00,VWS V14.01,2013-03-28 01:28:00,
2013-03-27 20:58:00,42.5,31.2,30.22,ESE,109,0.0,0.0,64,0.00,,---,0.00,VWS V14.01,2013-03-28 01:58:00,
2013-03-27 21:28:00,41.6,31.5,30.23,East,94,0.0,0.0,67,0.00,,---,0.00,VWS V14.01,2013-03-28 02:28:00,
2013-03-27 21:58:00,41.0,32.0,30.23,East,94,0.0,0.0,70,0.00,,---,0.00,VWS V14.01,2013-03-28 02:58:00,
2013-03-27 22:28:00,40.1,31.8,30.24,East,94,0.0,0.0,72,0.00,,---,0.00,VWS V14.01,2013-03-28 03:28:00,
2013-03-27 22:58:00,38.7,31.8,30.25,East,94,0.0,0.0,76,0.00,,---,0.00,VWS V14.01,2013-03-28 03:58:00,
2013-03-27 23:28:00,37.7,31.1,30.25,East,94,0.0,0.0,77,0.00,,---,0.00,VWS V14.01,2013-03-28 04:28:00,
2013-03-27 23:58:00,36.7,30.8,30.25,East,94,0.0,0.0,79,0.00,,---,0.00,VWS V14.01,2013-03-28 04:58:00,